sensor_id;sensor_type;location;lat;lon;timestamp;P1;durP1;ratioP1;P2;durP2;ratioP2
1410;SDS011;700;51.906;8.404;2024-02-26T00:00:41;3.00;;;1.60;;
1410;SDS011;700;51.906;8.404;2024-02-26T00:05:41;2.77;;;1.77;;
1410;SDS011;700;51.906;8.404;2024-02-26T00:10:44;3.03;;;1.73;;
1410;SDS011;700;51.906;8.404;2024-02-26T00:15:47;3.47;;;1.60;;
1410;SDS011;700;51.906;8.404;2024-02-26T00:20:48;2.00;;;1.63;;
1410;SDS011;700;51.906;8.404;2024-02-26T00:25:51;3.33;;;2.10;;
1410;SDS011;700;51.906;8.404;2024-02-26T00:30:51;2.37;;;1.80;;
1410;SDS011;700;51.906;8.404;2024-02-26T00:35:58;4.60;;;2.50;;
1410;SDS011;700;51.906;8.404;2024-02-26T00:40:58;4.70;;;2.20;;
1410;SDS011;700;51.906;8.404;2024-02-26T00:46:04;2.40;;;2.10;;
1410;SDS011;700;51.906;8.404;2024-02-26T00:51:07;3.97;;;2.20;;
1410;SDS011;700;51.906;8.404;2024-02-26T00:56:10;3.70;;;2.40;;
1410;SDS011;700;51.906;8.404;2024-02-26T01:01:10;2.53;;;2.03;;
1410;SDS011;700;51.906;8.404;2024-02-26T01:06:11;4.40;;;2.40;;
1410;SDS011;700;51.906;8.404;2024-02-26T01:11:14;2.67;;;2.03;;
1410;SDS011;700;51.906;8.404;2024-02-26T01:16:17;2.50;;;1.63;;
1410;SDS011;700;51.906;8.404;2024-02-26T01:21:17;4.63;;;1.80;;
1410;SDS011;700;51.906;8.404;2024-02-26T01:26:23;3.70;;;2.27;;
1410;SDS011;700;51.906;8.404;2024-02-26T01:31:26;5.30;;;2.70;;
1410;SDS011;700;51.906;8.404;2024-02-26T01:36:31;5.37;;;2.43;;
1410;SDS011;700;51.906;8.404;2024-02-26T01:41:32;4.53;;;2.53;;
1410;SDS011;700;51.906;8.404;2024-02-26T01:46:33;2.43;;;2.00;;
1410;SDS011;700;51.906;8.404;2024-02-26T01:51:35;3.33;;;2.00;;
1410;SDS011;700;51.906;8.404;2024-02-26T01:56:36;2.77;;;1.80;;
1410;SDS011;700;51.906;8.404;2024-02-26T02:01:42;3.43;;;1.73;;
1410;SDS011;700;51.906;8.404;2024-02-26T02:06:47;2.20;;;1.50;;
1410;SDS011;700;51.906;8.404;2024-02-26T02:11:51;2.87;;;1.47;;
1410;SDS011;700;51.906;8.404;2024-02-26T02:16:52;3.13;;;1.40;;
1410;SDS011;700;51.906;8.404;2024-02-26T02:21:55;3.30;;;1.53;;
1410;SDS011;700;51.906;8.404;2024-02-26T02:26:58;5.07;;;1.40;;
1410;SDS011;700;51.906;8.404;2024-02-26T02:32:01;2.03;;;1.20;;
1410;SDS011;700;51.906;8.404;2024-02-26T02:37:07;1.83;;;1.10;;
1410;SDS011;700;51.906;8.404;2024-02-26T02:42:07;3.70;;;1.10;;
1410;SDS011;700;51.906;8.404;2024-02-26T02:47:10;3.37;;;1.10;;
1410;SDS011;700;51.906;8.404;2024-02-26T02:52:13;2.53;;;1.27;;
1410;SDS011;700;51.906;8.404;2024-02-26T02:57:14;1.97;;;1.20;;
1410;SDS011;700;51.906;8.404;2024-02-26T03:02:17;2.33;;;1.17;;
1410;SDS011;700;51.906;8.404;2024-02-26T03:07:20;2.13;;;1.20;;
1410;SDS011;700;51.906;8.404;2024-02-26T03:12:20;2.10;;;1.13;;
1410;SDS011;700;51.906;8.404;2024-02-26T03:17:24;1.97;;;1.17;;
1410;SDS011;700;51.906;8.404;2024-02-26T03:22:24;5.20;;;1.30;;
1410;SDS011;700;51.906;8.404;2024-02-26T03:27:27;1.87;;;1.20;;
1410;SDS011;700;51.906;8.404;2024-02-26T03:32:30;2.33;;;1.20;;
1410;SDS011;700;51.906;8.404;2024-02-26T03:37:33;1.90;;;1.10;;
1410;SDS011;700;51.906;8.404;2024-02-26T03:42:38;1.77;;;1.00;;
1410;SDS011;700;51.906;8.404;2024-02-26T03:47:39;2.27;;;1.20;;
1410;SDS011;700;51.906;8.404;2024-02-26T03:52:40;5.57;;;1.67;;
1410;SDS011;700;51.906;8.404;2024-02-26T03:57:40;2.27;;;1.00;;
1410;SDS011;700;51.906;8.404;2024-02-26T04:02:41;2.03;;;1.13;;
1410;SDS011;700;51.906;8.404;2024-02-26T04:07:41;1.67;;;1.20;;
1410;SDS011;700;51.906;8.404;2024-02-26T04:12:42;2.27;;;1.30;;
1410;SDS011;700;51.906;8.404;2024-02-26T04:17:43;2.47;;;1.53;;
1410;SDS011;700;51.906;8.404;2024-02-26T04:22:44;2.27;;;1.40;;
1410;SDS011;700;51.906;8.404;2024-02-26T04:27:45;3.77;;;1.47;;
1410;SDS011;700;51.906;8.404;2024-02-26T04:32:46;2.90;;;1.30;;
1410;SDS011;700;51.906;8.404;2024-02-26T04:37:46;1.90;;;1.00;;
1410;SDS011;700;51.906;8.404;2024-02-26T04:42:47;1.63;;;1.00;;
1410;SDS011;700;51.906;8.404;2024-02-26T04:47:50;1.87;;;0.97;;
1410;SDS011;700;51.906;8.404;2024-02-26T04:52:50;2.40;;;1.20;;
1410;SDS011;700;51.906;8.404;2024-02-26T04:57:53;2.10;;;1.33;;
1410;SDS011;700;51.906;8.404;2024-02-26T05:02:54;5.67;;;1.57;;
1410;SDS011;700;51.906;8.404;2024-02-26T05:07:54;1.63;;;1.00;;
1410;SDS011;700;51.906;8.404;2024-02-26T05:12:55;1.93;;;1.20;;
1410;SDS011;700;51.906;8.404;2024-02-26T05:17:56;2.30;;;1.27;;
1410;SDS011;700;51.906;8.404;2024-02-26T05:22:56;1.63;;;0.93;;
1410;SDS011;700;51.906;8.404;2024-02-26T05:27:59;3.13;;;1.30;;
1410;SDS011;700;51.906;8.404;2024-02-26T05:33:00;4.73;;;3.00;;
1410;SDS011;700;51.906;8.404;2024-02-26T05:38:01;4.43;;;1.13;;
1410;SDS011;700;51.906;8.404;2024-02-26T05:43:01;2.20;;;1.33;;
1410;SDS011;700;51.906;8.404;2024-02-26T05:48:04;4.60;;;1.87;;
1410;SDS011;700;51.906;8.404;2024-02-26T05:53:05;2.67;;;1.60;;
1410;SDS011;700;51.906;8.404;2024-02-26T05:58:11;2.23;;;1.53;;
1410;SDS011;700;51.906;8.404;2024-02-26T06:03:12;4.43;;;1.40;;
1410;SDS011;700;51.906;8.404;2024-02-26T06:08:12;2.93;;;1.50;;
1410;SDS011;700;51.906;8.404;2024-02-26T06:13:13;1.57;;;1.10;;
1410;SDS011;700;51.906;8.404;2024-02-26T06:18:14;2.50;;;1.27;;
1410;SDS011;700;51.906;8.404;2024-02-26T06:23:17;2.97;;;1.30;;
1410;SDS011;700;51.906;8.404;2024-02-26T06:28:19;2.10;;;1.13;;
1410;SDS011;700;51.906;8.404;2024-02-26T06:33:19;2.23;;;1.10;;
1410;SDS011;700;51.906;8.404;2024-02-26T06:38:20;4.53;;;1.10;;
1410;SDS011;700;51.906;8.404;2024-02-26T06:43:20;2.53;;;1.47;;
1410;SDS011;700;51.906;8.404;2024-02-26T06:48:22;2.10;;;1.27;;
1410;SDS011;700;51.906;8.404;2024-02-26T06:53:23;6.07;;;3.73;;
1410;SDS011;700;51.906;8.404;2024-02-26T06:58:29;5.77;;;2.73;;
1410;SDS011;700;51.906;8.404;2024-02-26T07:03:29;3.83;;;2.03;;
1410;SDS011;700;51.906;8.404;2024-02-26T07:08:32;4.37;;;1.80;;
1410;SDS011;700;51.906;8.404;2024-02-26T07:13:36;2.87;;;1.53;;
1410;SDS011;700;51.906;8.404;2024-02-26T07:18:37;2.03;;;1.40;;
1410;SDS011;700;51.906;8.404;2024-02-26T07:23:41;4.30;;;1.70;;
1410;SDS011;700;51.906;8.404;2024-02-26T07:28:44;2.57;;;1.40;;
1410;SDS011;700;51.906;8.404;2024-02-26T07:33:44;2.40;;;1.60;;
1410;SDS011;700;51.906;8.404;2024-02-26T07:38:45;2.90;;;1.70;;
1410;SDS011;700;51.906;8.404;2024-02-26T07:43:48;3.17;;;1.87;;
1410;SDS011;700;51.906;8.404;2024-02-26T07:48:49;3.23;;;2.17;;
1410;SDS011;700;51.906;8.404;2024-02-26T07:53:49;3.80;;;1.60;;
1410;SDS011;700;51.906;8.404;2024-02-26T07:58:52;3.00;;;1.80;;
1410;SDS011;700;51.906;8.404;2024-02-26T08:03:53;3.00;;;1.60;;
1410;SDS011;700;51.906;8.404;2024-02-26T08:08:54;3.93;;;1.97;;
1410;SDS011;700;51.906;8.404;2024-02-26T08:13:57;3.03;;;1.77;;
1410;SDS011;700;51.906;8.404;2024-02-26T08:18:59;2.40;;;1.53;;
1410;SDS011;700;51.906;8.404;2024-02-26T08:23:59;2.87;;;2.03;;
1410;SDS011;700;51.906;8.404;2024-02-26T08:29:03;3.50;;;2.00;;
1410;SDS011;700;51.906;8.404;2024-02-26T08:34:04;3.60;;;1.83;;
1410;SDS011;700;51.906;8.404;2024-02-26T08:39:04;2.73;;;2.13;;
1410;SDS011;700;51.906;8.404;2024-02-26T08:44:05;4.00;;;1.87;;
1410;SDS011;700;51.906;8.404;2024-02-26T08:49:06;2.80;;;2.13;;
1410;SDS011;700;51.906;8.404;2024-02-26T08:54:08;3.13;;;2.30;;
1410;SDS011;700;51.906;8.404;2024-02-26T08:59:11;3.80;;;2.33;;
1410;SDS011;700;51.906;8.404;2024-02-26T09:04:12;4.30;;;2.70;;
1410;SDS011;700;51.906;8.404;2024-02-26T09:09:13;3.53;;;2.70;;
1410;SDS011;700;51.906;8.404;2024-02-26T09:14:13;5.37;;;2.50;;
1410;SDS011;700;51.906;8.404;2024-02-26T09:19:14;9.90;;;3.30;;
1410;SDS011;700;51.906;8.404;2024-02-26T09:24:15;5.07;;;3.10;;
1410;SDS011;700;51.906;8.404;2024-02-26T09:29:16;5.73;;;3.30;;
1410;SDS011;700;51.906;8.404;2024-02-26T09:34:17;5.20;;;3.50;;
1410;SDS011;700;51.906;8.404;2024-02-26T09:39:18;4.87;;;3.73;;
1410;SDS011;700;51.906;8.404;2024-02-26T09:44:21;7.33;;;3.20;;
1410;SDS011;700;51.906;8.404;2024-02-26T09:49:23;4.73;;;3.30;;
1410;SDS011;700;51.906;8.404;2024-02-26T09:54:24;5.07;;;3.43;;
1410;SDS011;700;51.906;8.404;2024-02-26T09:59:28;6.63;;;4.33;;
1410;SDS011;700;51.906;8.404;2024-02-26T10:04:35;5.90;;;4.23;;
1410;SDS011;700;51.906;8.404;2024-02-26T10:09:39;5.73;;;4.43;;
1410;SDS011;700;51.906;8.404;2024-02-26T10:14:39;5.70;;;4.00;;
1410;SDS011;700;51.906;8.404;2024-02-26T10:19:40;5.57;;;4.00;;
1410;SDS011;700;51.906;8.404;2024-02-26T10:24:43;6.30;;;4.50;;
1410;SDS011;700;51.906;8.404;2024-02-26T10:29:47;5.40;;;4.17;;
1410;SDS011;700;51.906;8.404;2024-02-26T10:34:55;5.70;;;4.47;;
1410;SDS011;700;51.906;8.404;2024-02-26T10:39:56;5.30;;;4.63;;
1410;SDS011;700;51.906;8.404;2024-02-26T10:44:57;7.60;;;4.87;;
1410;SDS011;700;51.906;8.404;2024-02-26T10:49:58;5.97;;;5.00;;
1410;SDS011;700;51.906;8.404;2024-02-26T10:55:05;5.97;;;4.43;;
1410;SDS011;700;51.906;8.404;2024-02-26T11:00:14;5.60;;;3.97;;
1410;SDS011;700;51.906;8.404;2024-02-26T11:05:16;4.73;;;3.50;;
1410;SDS011;700;51.906;8.404;2024-02-26T11:10:17;6.80;;;4.10;;
1410;SDS011;700;51.906;8.404;2024-02-26T11:15:21;6.43;;;3.40;;
1410;SDS011;700;51.906;8.404;2024-02-26T11:20:22;5.47;;;3.30;;
1410;SDS011;700;51.906;8.404;2024-02-26T11:25:30;5.00;;;3.77;;
1410;SDS011;700;51.906;8.404;2024-02-26T11:30:35;6.00;;;3.40;;
1410;SDS011;700;51.906;8.404;2024-02-26T11:35:42;6.97;;;4.23;;
1410;SDS011;700;51.906;8.404;2024-02-26T11:40:43;4.50;;;3.50;;
1410;SDS011;700;51.906;8.404;2024-02-26T11:45:48;7.27;;;4.23;;
1410;SDS011;700;51.906;8.404;2024-02-26T11:50:55;6.50;;;4.57;;
1410;SDS011;700;51.906;8.404;2024-02-26T12:06:53;6.53;;;4.10;;
1410;SDS011;700;51.906;8.404;2024-02-26T12:12:03;7.03;;;4.60;;
1410;SDS011;700;51.906;8.404;2024-02-26T12:17:07;5.90;;;4.30;;
1410;SDS011;700;51.906;8.404;2024-02-26T12:22:18;5.87;;;4.23;;
1410;SDS011;700;51.906;8.404;2024-02-26T12:27:19;6.93;;;5.27;;
1410;SDS011;700;51.906;8.404;2024-02-26T12:32:23;6.83;;;4.87;;
1410;SDS011;700;51.906;8.404;2024-02-26T12:37:26;6.40;;;4.67;;
1410;SDS011;700;51.906;8.404;2024-02-26T12:42:30;5.83;;;4.40;;
1410;SDS011;700;51.906;8.404;2024-02-26T12:47:34;5.00;;;4.10;;
1410;SDS011;700;51.906;8.404;2024-02-26T12:52:42;5.30;;;4.33;;
1410;SDS011;700;51.906;8.404;2024-02-26T12:57:48;4.63;;;4.13;;
1410;SDS011;700;51.906;8.404;2024-02-26T13:02:54;5.83;;;3.93;;
1410;SDS011;700;51.906;8.404;2024-02-26T13:07:55;9.53;;;4.50;;
1410;SDS011;700;51.906;8.404;2024-02-26T13:12:56;5.88;;;4.80;;
1410;SDS011;700;51.906;8.404;2024-02-26T13:17:57;6.27;;;4.33;;
1410;SDS011;700;51.906;8.404;2024-02-26T13:23:06;7.63;;;4.10;;
1410;SDS011;700;51.906;8.404;2024-02-26T13:28:18;3.83;;;3.37;;
1410;SDS011;700;51.906;8.404;2024-02-26T13:33:21;3.97;;;3.20;;
1410;SDS011;700;51.906;8.404;2024-02-26T13:38:25;4.53;;;3.53;;
1410;SDS011;700;51.906;8.404;2024-02-26T13:43:29;5.73;;;3.10;;
1410;SDS011;700;51.906;8.404;2024-02-26T13:48:34;4.30;;;3.10;;
1410;SDS011;700;51.906;8.404;2024-02-26T13:53:34;5.97;;;3.20;;
1410;SDS011;700;51.906;8.404;2024-02-26T13:58:37;5.30;;;2.83;;
1410;SDS011;700;51.906;8.404;2024-02-26T14:03:38;3.77;;;3.03;;
1410;SDS011;700;51.906;8.404;2024-02-26T14:08:43;3.40;;;2.70;;
1410;SDS011;700;51.906;8.404;2024-02-26T14:13:46;4.03;;;2.87;;
1410;SDS011;700;51.906;8.404;2024-02-26T14:18:49;4.50;;;3.00;;
1410;SDS011;700;51.906;8.404;2024-02-26T14:23:52;4.10;;;3.00;;
1410;SDS011;700;51.906;8.404;2024-02-26T14:28:53;3.23;;;2.57;;
1410;SDS011;700;51.906;8.404;2024-02-26T14:33:56;3.93;;;2.97;;
1410;SDS011;700;51.906;8.404;2024-02-26T14:38:58;5.33;;;2.80;;
1410;SDS011;700;51.906;8.404;2024-02-26T14:44:04;4.63;;;2.77;;
1410;SDS011;700;51.906;8.404;2024-02-26T14:49:07;5.27;;;3.60;;
1410;SDS011;700;51.906;8.404;2024-02-26T14:54:11;4.07;;;2.80;;
1410;SDS011;700;51.906;8.404;2024-02-26T14:59:15;5.40;;;3.40;;
1410;SDS011;700;51.906;8.404;2024-02-26T15:04:17;3.63;;;3.07;;
1410;SDS011;700;51.906;8.404;2024-02-26T15:09:18;4.20;;;3.10;;
1410;SDS011;700;51.906;8.404;2024-02-26T15:14:21;5.03;;;3.57;;
1410;SDS011;700;51.906;8.404;2024-02-26T15:19:24;4.93;;;3.10;;
1410;SDS011;700;51.906;8.404;2024-02-26T15:24:24;4.53;;;3.50;;
1410;SDS011;700;51.906;8.404;2024-02-26T15:29:25;4.33;;;2.53;;
1410;SDS011;700;51.906;8.404;2024-02-26T15:34:26;5.23;;;3.37;;
1410;SDS011;700;51.906;8.404;2024-02-26T15:39:32;4.30;;;3.30;;
1410;SDS011;700;51.906;8.404;2024-02-26T15:44:33;5.40;;;3.10;;
1410;SDS011;700;51.906;8.404;2024-02-26T15:49:36;3.70;;;3.17;;
1410;SDS011;700;51.906;8.404;2024-02-26T15:54:39;4.13;;;3.20;;
1410;SDS011;700;51.906;8.404;2024-02-26T15:59:43;3.00;;;2.30;;
1410;SDS011;700;51.906;8.404;2024-02-26T16:04:46;3.40;;;2.50;;
1410;SDS011;700;51.906;8.404;2024-02-26T16:09:50;3.70;;;2.50;;
1410;SDS011;700;51.906;8.404;2024-02-26T16:14:52;3.27;;;2.50;;
1410;SDS011;700;51.906;8.404;2024-02-26T16:19:53;8.30;;;2.33;;
1410;SDS011;700;51.906;8.404;2024-02-26T16:24:55;3.43;;;2.40;;
1410;SDS011;700;51.906;8.404;2024-02-26T16:29:58;2.73;;;2.03;;
1410;SDS011;700;51.906;8.404;2024-02-26T16:35:01;4.93;;;2.00;;
1410;SDS011;700;51.906;8.404;2024-02-26T16:40:03;3.37;;;2.23;;
1410;SDS011;700;51.906;8.404;2024-02-26T16:45:05;2.63;;;1.67;;
1410;SDS011;700;51.906;8.404;2024-02-26T16:50:06;2.30;;;1.93;;
1410;SDS011;700;51.906;8.404;2024-02-26T16:55:12;2.33;;;1.80;;
1410;SDS011;700;51.906;8.404;2024-02-26T17:00:15;3.13;;;1.83;;
1410;SDS011;700;51.906;8.404;2024-02-26T17:05:16;6.20;;;2.60;;
1410;SDS011;700;51.906;8.404;2024-02-26T17:10:17;2.70;;;1.90;;
1410;SDS011;700;51.906;8.404;2024-02-26T17:15:20;3.10;;;1.70;;
1410;SDS011;700;51.906;8.404;2024-02-26T17:20:21;2.80;;;1.70;;
1410;SDS011;700;51.906;8.404;2024-02-26T17:25:21;3.67;;;1.90;;
1410;SDS011;700;51.906;8.404;2024-02-26T17:30:24;2.67;;;1.90;;
1410;SDS011;700;51.906;8.404;2024-02-26T17:35:25;2.80;;;1.80;;
1410;SDS011;700;51.906;8.404;2024-02-26T17:40:28;2.80;;;1.90;;
1410;SDS011;700;51.906;8.404;2024-02-26T17:45:30;7.23;;;3.70;;
1410;SDS011;700;51.906;8.404;2024-02-26T17:50:31;2.87;;;1.90;;
1410;SDS011;700;51.906;8.404;2024-02-26T17:55:31;3.90;;;2.20;;
1410;SDS011;700;51.906;8.404;2024-02-26T18:00:34;2.77;;;1.80;;
1410;SDS011;700;51.906;8.404;2024-02-26T18:05:38;3.27;;;1.90;;
1410;SDS011;700;51.906;8.404;2024-02-26T18:10:39;7.50;;;2.77;;
1410;SDS011;700;51.906;8.404;2024-02-26T18:15:39;4.80;;;2.43;;
1410;SDS011;700;51.906;8.404;2024-02-26T18:20:40;4.00;;;2.87;;
1410;SDS011;700;51.906;8.404;2024-02-26T18:25:43;3.10;;;2.17;;
1410;SDS011;700;51.906;8.404;2024-02-26T18:30:48;3.53;;;2.37;;
1410;SDS011;700;51.906;8.404;2024-02-26T18:35:48;3.27;;;2.23;;
1410;SDS011;700;51.906;8.404;2024-02-26T18:40:51;3.67;;;1.73;;
1410;SDS011;700;51.906;8.404;2024-02-26T18:45:52;2.57;;;2.07;;
1410;SDS011;700;51.906;8.404;2024-02-26T18:50:57;3.80;;;2.13;;
1410;SDS011;700;51.906;8.404;2024-02-26T18:55:57;3.00;;;2.23;;
1410;SDS011;700;51.906;8.404;2024-02-26T19:01:00;2.90;;;2.23;;
1410;SDS011;700;51.906;8.404;2024-02-26T19:06:01;2.63;;;2.10;;
1410;SDS011;700;51.906;8.404;2024-02-26T19:11:06;6.60;;;2.87;;
1410;SDS011;700;51.906;8.404;2024-02-26T19:16:10;3.60;;;2.33;;
1410;SDS011;700;51.906;8.404;2024-02-26T19:21:10;4.57;;;2.63;;
1410;SDS011;700;51.906;8.404;2024-02-26T19:26:15;2.63;;;2.13;;
1410;SDS011;700;51.906;8.404;2024-02-26T19:31:16;3.43;;;2.67;;
1410;SDS011;700;51.906;8.404;2024-02-26T19:36:17;3.43;;;2.70;;
1410;SDS011;700;51.906;8.404;2024-02-26T19:41:18;3.00;;;2.40;;
1410;SDS011;700;51.906;8.404;2024-02-26T19:46:19;4.10;;;3.40;;
1410;SDS011;700;51.906;8.404;2024-02-26T19:51:24;4.07;;;3.20;;
1410;SDS011;700;51.906;8.404;2024-02-26T19:56:27;4.27;;;2.60;;
1410;SDS011;700;51.906;8.404;2024-02-26T20:01:28;3.47;;;2.20;;
1410;SDS011;700;51.906;8.404;2024-02-26T20:06:29;2.90;;;2.33;;
1410;SDS011;700;51.906;8.404;2024-02-26T20:11:32;3.07;;;2.30;;
1410;SDS011;700;51.906;8.404;2024-02-26T20:16:35;3.97;;;2.70;;
1410;SDS011;700;51.906;8.404;2024-02-26T20:21:38;3.33;;;2.47;;
1410;SDS011;700;51.906;8.404;2024-02-26T20:26:39;4.23;;;2.57;;
1410;SDS011;700;51.906;8.404;2024-02-26T20:31:43;3.47;;;3.07;;
1410;SDS011;700;51.906;8.404;2024-02-26T20:36:44;4.67;;;3.00;;
1410;SDS011;700;51.906;8.404;2024-02-26T20:41:44;4.23;;;3.40;;
1410;SDS011;700;51.906;8.404;2024-02-26T20:46:45;3.70;;;2.70;;
1410;SDS011;700;51.906;8.404;2024-02-26T20:51:46;4.30;;;3.27;;
1410;SDS011;700;51.906;8.404;2024-02-26T20:56:46;4.53;;;3.60;;
1410;SDS011;700;51.906;8.404;2024-02-26T21:01:49;5.20;;;3.80;;
1410;SDS011;700;51.906;8.404;2024-02-26T21:06:49;4.73;;;4.03;;
1410;SDS011;700;51.906;8.404;2024-02-26T21:11:50;5.87;;;4.60;;
1410;SDS011;700;51.906;8.404;2024-02-26T21:16:51;5.63;;;4.90;;
1410;SDS011;700;51.906;8.404;2024-02-26T21:21:51;6.37;;;5.27;;
1410;SDS011;700;51.906;8.404;2024-02-26T21:26:52;9.23;;;6.80;;
1410;SDS011;700;51.906;8.404;2024-02-26T21:31:52;7.80;;;7.00;;
1410;SDS011;700;51.906;8.404;2024-02-26T21:36:53;9.00;;;7.23;;
1410;SDS011;700;51.906;8.404;2024-02-26T21:41:56;9.17;;;7.70;;
1410;SDS011;700;51.906;8.404;2024-02-26T21:46:57;13.60;;;9.00;;
1410;SDS011;700;51.906;8.404;2024-02-26T21:51:58;11.30;;;8.10;;
1410;SDS011;700;51.906;8.404;2024-02-26T21:56:59;12.13;;;9.50;;
1410;SDS011;700;51.906;8.404;2024-02-26T22:01:59;12.80;;;9.50;;
1410;SDS011;700;51.906;8.404;2024-02-26T22:07:00;13.73;;;10.43;;
1410;SDS011;700;51.906;8.404;2024-02-26T22:12:01;11.10;;;9.03;;
1410;SDS011;700;51.906;8.404;2024-02-26T22:17:02;14.57;;;10.03;;
1410;SDS011;700;51.906;8.404;2024-02-26T22:22:02;13.50;;;11.07;;
1410;SDS011;700;51.906;8.404;2024-02-26T22:27:03;14.43;;;11.17;;
1410;SDS011;700;51.906;8.404;2024-02-26T22:32:04;11.70;;;9.53;;
1410;SDS011;700;51.906;8.404;2024-02-26T22:37:05;12.87;;;10.70;;
1410;SDS011;700;51.906;8.404;2024-02-26T22:42:10;13.90;;;10.60;;
1410;SDS011;700;51.906;8.404;2024-02-26T22:47:11;16.20;;;12.03;;
1410;SDS011;700;51.906;8.404;2024-02-26T22:52:12;15.43;;;11.67;;
1410;SDS011;700;51.906;8.404;2024-02-26T22:57:12;17.07;;;12.40;;
1410;SDS011;700;51.906;8.404;2024-02-26T23:02:15;15.33;;;11.97;;
1410;SDS011;700;51.906;8.404;2024-02-26T23:07:18;15.80;;;12.60;;
1410;SDS011;700;51.906;8.404;2024-02-26T23:12:19;15.00;;;11.00;;
1410;SDS011;700;51.906;8.404;2024-02-26T23:17:20;14.67;;;11.50;;
1410;SDS011;700;51.906;8.404;2024-02-26T23:22:21;14.77;;;11.53;;
1410;SDS011;700;51.906;8.404;2024-02-26T23:27:22;17.97;;;12.50;;
1410;SDS011;700;51.906;8.404;2024-02-26T23:32:24;15.70;;;12.37;;
1410;SDS011;700;51.906;8.404;2024-02-26T23:37:27;14.63;;;11.07;;
1410;SDS011;700;51.906;8.404;2024-02-26T23:42:28;14.97;;;11.57;;
1410;SDS011;700;51.906;8.404;2024-02-26T23:47:28;16.80;;;12.10;;
1410;SDS011;700;51.906;8.404;2024-02-26T23:52:29;17.03;;;12.63;;
1410;SDS011;700;51.906;8.404;2024-02-26T23:57:32;15.57;;;12.13;;
